Terminal Aerodrome Forecast
Issued by NWS

Home | Current Version | Previous Version | Text Only | Print | Product List | Glossary On
Versions: 1 2 3 4 5 6 7 8 9 10 11 12 13
602
FTUS42 KMLB 260530
TAFSUA
TAF
KSUA 260530Z 2606/2706 13005KT P6SM FEW120
     FM261300 15007KT P6SM SCT025
     FM261630 11011KT P6SM VCTS BKN035CB
     FM262000 12010KT P6SM VCSH SCT035 BKN120=

USA.gov is the U.S. government's official web portal to all federal, state and local government web resources and services.